Time;durP1;ratioP1;P1;durP2;ratioP2;P2;SDS_P1;SDS_P2;PMS_P1;PMS_P2;Temp;Humidity;BMP_temperature;BMP_pressure;BME280_temperature;BME280_humidity;BME280_pressure;Samples;Min_cycle;Max_cycle;Signal;HPM_P1;HPM_P2
2022/05/04 00:00:27;;;;;;;2.65;1.13;;;24.50;46.10;;;;;;5029508;28;20511;-62
2022/05/04 00:02:53;;;;;;;2.47;1.00;;;24.50;46.10;;;;;;5027145;28;20120;-62
2022/05/04 00:05:19;;;;;;;1.05;0.80;;;24.50;46.10;;;;;;5028026;28;20033;-65
2022/05/04 00:07:45;;;;;;;1.20;0.80;;;24.50;46.10;;;;;;5026700;28;20114;-65
2022/05/04 00:10:12;;;;;;;1.95;0.93;;;24.50;46.10;;;;;;5027693;28;20118;-66
2022/05/04 00:12:37;;;;;;;1.80;1.10;;;24.50;46.10;;;;;;5030225;28;20029;-61
2022/05/04 00:15:04;;;;;;;3.15;1.20;;;24.50;46.10;;;;;;5030356;28;20705;-67
2022/05/04 00:17:30;;;;;;;1.40;0.90;;;24.50;46.10;;;;;;5030935;28;20039;-64
2022/05/04 00:19:55;;;;;;;0.90;0.80;;;24.50;46.10;;;;;;5029931;28;20412;-66
2022/05/04 00:22:22;;;;;;;1.50;0.90;;;24.40;46.00;;;;;;5021121;28;20067;-64
2022/05/04 00:24:48;;;;;;;1.73;0.90;;;24.40;46.50;;;;;;5023300;28;20032;-62
2022/05/04 00:27:17;;;;;;;1.33;0.93;;;24.40;46.10;;;;;;5033104;28;20040;-67
2022/05/04 00:29:44;;;;;;;1.40;0.90;;;24.40;46.10;;;;;;5035121;28;20033;-64
2022/05/04 00:32:14;;;;;;;2.17;0.90;;;24.40;46.00;;;;;;5013850;28;20037;-62
2022/05/04 00:34:40;;;;;;;2.13;1.00;;;24.40;46.10;;;;;;5032465;28;20108;-64
2022/05/04 00:37:06;;;;;;;1.60;1.02;;;24.40;46.10;;;;;;5032868;28;20463;-68
2022/05/04 00:39:32;;;;;;;1.38;0.90;;;24.40;46.10;;;;;;5033840;28;20033;-65
2022/05/04 00:42:07;;;;;;;1.83;0.98;;;24.40;46.10;;;;;;5030943;28;20040;-66
2022/05/04 00:44:36;;;;;;;1.27;0.93;;;24.30;46.00;;;;;;5032880;28;20044;-65
2022/05/04 00:47:03;;;;;;;1.42;0.90;;;24.30;46.00;;;;;;5035319;28;20033;-64
2022/05/04 00:49:32;;;;;;;1.73;0.98;;;24.30;46.00;;;;;;5033013;28;20116;-65
2022/05/04 00:51:58;;;;;;;2.30;1.20;;;24.30;46.00;;;;;;5031791;28;20026;-66
2022/05/04 00:54:24;;;;;;;1.15;0.90;;;24.30;46.10;;;;;;5035474;28;20087;-63
2022/05/04 00:56:50;;;;;;;0.90;0.80;;;24.30;46.10;;;;;;5032964;28;20048;-65
2022/05/04 00:59:16;;;;;;;2.28;1.10;;;24.30;46.10;;;;;;5036610;28;20439;-61
2022/05/04 01:01:45;;;;;;;1.60;1.00;;;24.30;46.10;;;;;;5032495;28;20037;-65
2022/05/04 01:04:11;;;;;;;1.60;0.93;;;24.30;46.00;;;;;;5033002;28;20029;-64
2022/05/04 01:06:37;;;;;;;1.67;0.85;;;24.30;46.10;;;;;;5032896;28;20515;-62
2022/05/04 01:09:03;;;;;;;1.60;0.98;;;24.30;46.10;;;;;;5033018;28;20017;-61
2022/05/04 01:11:29;;;;;;;1.52;1.02;;;24.30;46.10;;;;;;5031479;28;20028;-62
2022/05/04 01:14:02;;;;;;;1.52;1.08;;;24.20;46.00;;;;;;5031736;28;20025;-64
2022/05/04 01:16:29;;;;;;;1.00;0.80;;;24.20;46.00;;;;;;5031357;28;20503;-64
2022/05/04 01:18:55;;;;;;;1.40;0.80;;;24.20;46.00;;;;;;5028534;28;20438;-65
2022/05/04 01:21:21;;;;;;;3.35;0.90;;;24.20;46.00;;;;;;5031977;28;20033;-64
2022/05/04 01:23:47;;;;;;;1.00;0.80;;;24.20;46.00;;;;;;5035684;28;20040;-62
2022/05/04 01:26:18;;;;;;;1.52;0.90;;;24.20;46.10;;;;;;5033148;28;20037;-62
2022/05/04 01:28:45;;;;;;;1.33;0.90;;;24.20;46.00;;;;;;5034594;28;20488;-64
2022/05/04 01:31:11;;;;;;;1.05;0.82;;;24.20;46.00;;;;;;5029708;28;20040;-64
2022/05/04 01:33:37;;;;;;;1.20;0.85;;;24.20;46.10;;;;;;5030111;28;20025;-64
2022/05/04 01:36:03;;;;;;;1.13;0.98;;;24.20;46.00;;;;;;5030785;28;20044;-65
2022/05/04 01:38:29;;;;;;;1.67;1.05;;;24.20;46.00;;;;;;5032201;28;20037;-63
2022/05/04 01:40:54;;;;;;;1.40;1.10;;;24.20;46.00;;;;;;5031674;28;20400;-64
2022/05/04 01:43:20;;;;;;;1.73;1.02;;;24.20;46.00;;;;;;5030638;28;20033;-61
2022/05/04 01:45:45;;;;;;;1.77;1.00;;;24.20;46.00;;;;;;5032647;28;20148;-64
2022/05/04 01:48:11;;;;;;;1.45;0.90;;;24.20;46.00;;;;;;5031628;28;20033;-62
2022/05/04 01:50:37;;;;;;;1.33;0.98;;;24.10;46.00;;;;;;5028423;28;20040;-64
2022/05/04 01:53:02;;;;;;;1.63;1.00;;;24.10;46.00;;;;;;5033016;28;20045;-66
2022/05/04 01:55:32;;;;;;;1.17;0.80;;;24.10;46.00;;;;;;5034865;28;20315;-62
2022/05/04 01:57:57;;;;;;;1.20;0.90;;;24.10;46.00;;;;;;5030196;28;20025;-67
2022/05/04 02:00:23;;;;;;;1.65;1.00;;;24.10;46.00;;;;;;5029960;28;20114;-62
2022/05/04 02:02:50;;;;;;;1.70;1.10;;;24.10;46.00;;;;;;5032593;28;20523;-63
2022/05/04 02:05:16;;;;;;;0.90;0.85;;;24.10;46.00;;;;;;5029968;28;20120;-63
2022/05/04 02:07:41;;;;;;;1.27;0.90;;;24.10;46.00;;;;;;5031547;28;20086;-62
2022/05/04 02:10:09;;;;;;;0.98;0.82;;;24.10;46.00;;;;;;5034105;28;20021;-63
2022/05/04 02:12:34;;;;;;;1.65;1.00;;;24.10;46.00;;;;;;5028907;28;20025;-65
2022/05/04 02:15:00;;;;;;;1.98;1.00;;;24.00;46.00;;;;;;5032736;28;20041;-62
2022/05/04 02:17:26;;;;;;;1.70;1.00;;;24.10;46.00;;;;;;5032325;28;20032;-61
2022/05/04 02:19:52;;;;;;;1.20;0.88;;;24.00;46.00;;;;;;5032405;28;20029;-64
2022/05/04 02:22:18;;;;;;;1.65;0.90;;;24.00;46.00;;;;;;5030821;28;20044;-63
2022/05/04 02:24:44;;;;;;;1.00;0.80;;;24.10;46.00;;;;;;5032016;28;20033;-69
2022/05/04 02:27:09;;;;;;;2.58;0.90;;;24.00;46.00;;;;;;5033638;28;20123;-61
2022/05/04 02:29:35;;;;;;;1.23;0.80;;;24.00;46.00;;;;;;5029733;28;20028;-63
2022/05/04 02:32:01;;;;;;;1.50;0.98;;;24.00;46.00;;;;;;5028757;28;20743;-64
2022/05/04 02:34:26;;;;;;;1.15;0.90;;;24.00;46.00;;;;;;5030559;28;20060;-69
2022/05/04 02:39:37;;;;;;;1.15;0.75;;;24.00;46.00;;;;;;5029958;28;20052;-69
2022/05/04 02:42:03;;;;;;;1.02;0.85;;;24.00;46.00;;;;;;5030093;28;20020;-62
2022/05/04 02:44:29;;;;;;;1.58;0.90;;;24.00;46.00;;;;;;5032389;28;20088;-67
2022/05/04 02:46:54;;;;;;;1.90;1.00;;;24.00;46.00;;;;;;5031980;28;20029;-66
2022/05/04 02:49:20;;;;;;;1.30;0.93;;;24.00;46.00;;;;;;5028252;28;20043;-62
2022/05/04 02:51:46;;;;;;;1.20;0.80;;;24.00;46.00;;;;;;5029012;28;20037;-62
2022/05/04 02:54:11;;;;;;;1.08;0.85;;;23.90;45.90;;;;;;5032682;28;20485;-63
2022/05/04 02:56:37;;;;;;;1.48;0.90;;;23.90;46.00;;;;;;5032860;28;20338;-62
2022/05/04 02:59:03;;;;;;;1.27;0.90;;;23.90;46.00;;;;;;5029572;28;20021;-66
2022/05/04 03:04:13;;;;;;;1.17;0.90;;;23.90;46.00;;;;;;5030842;28;20280;-61
2022/05/04 03:06:40;;;;;;;1.40;0.95;;;23.90;46.00;;;;;;5030799;28;20481;-68
2022/05/04 03:09:08;;;;;;;1.50;1.00;;;23.90;45.90;;;;;;5031174;28;20056;-68
2022/05/04 03:14:20;;;;;;;1.23;0.80;;;23.90;46.00;;;;;;5032579;28;20036;-63
2022/05/04 03:16:46;;;;;;;1.42;0.98;;;23.90;46.00;;;;;;5028858;28;20025;-67
2022/05/04 03:19:12;;;;;;;1.20;0.90;;;23.90;46.00;;;;;;5030482;28;20025;-68
2022/05/04 03:21:38;;;;;;;0.75;0.75;;;23.90;46.00;;;;;;5029707;28;20025;-61
2022/05/04 03:24:04;;;;;;;2.10;1.08;;;23.90;46.00;;;;;;5032184;28;20162;-63
2022/05/04 03:26:29;;;;;;;1.38;0.80;;;23.90;46.00;;;;;;5030706;28;20478;-63
2022/05/04 03:28:55;;;;;;;1.08;0.85;;;23.80;45.90;;;;;;5032435;28;20065;-62
2022/05/04 03:31:22;;;;;;;1.50;0.90;;;23.90;46.00;;;;;;5029222;28;20151;-66
2022/05/04 03:33:47;;;;;;;1.30;0.98;;;23.90;46.00;;;;;;5030144;28;20493;-61
2022/05/04 03:36:13;;;;;;;1.15;0.73;;;23.80;46.00;;;;;;5025484;28;20037;-62
2022/05/04 03:38:39;;;;;;;1.65;0.90;;;23.80;45.90;;;;;;5026406;28;20048;-62
2022/05/04 03:41:05;;;;;;;1.15;0.90;;;23.80;45.90;;;;;;5022087;28;20051;-68
2022/05/04 03:43:31;;;;;;;1.25;1.05;;;23.80;46.00;;;;;;5028337;28;20078;-62
2022/05/04 03:46:11;;;;;;;0.98;0.82;;;23.80;45.90;;;;;;5024784;28;20033;-63
2022/05/04 03:48:37;;;;;;;1.42;0.90;;;23.80;46.00;;;;;;5008723;28;20032;-68
2022/05/04 03:51:02;;;;;;;1.00;0.80;;;23.80;45.90;;;;;;5028418;28;20021;-66
2022/05/04 03:53:28;;;;;;;1.35;0.90;;;23.80;45.90;;;;;;5032116;28;20519;-64
2022/05/04 03:55:53;;;;;;;2.35;0.90;;;23.80;46.00;;;;;;5036323;28;20090;-62
2022/05/04 03:58:19;;;;;;;1.25;1.02;;;23.80;45.50;;;;;;5035266;28;20033;-61
2022/05/04 04:00:44;;;;;;;1.45;0.93;;;23.80;46.00;;;;;;5034035;28;20036;-69
2022/05/04 04:03:10;;;;;;;1.10;0.82;;;23.80;46.00;;;;;;5030887;28;20063;-61
2022/05/04 04:05:35;;;;;;;1.00;0.90;;;23.80;46.00;;;;;;5034888;28;20041;-67
2022/05/04 04:08:01;;;;;;;1.00;0.80;;;23.80;46.00;;;;;;5034499;28;20017;-64
2022/05/04 04:10:27;;;;;;;1.23;1.00;;;23.70;46.00;;;;;;5036366;28;20021;-65
2022/05/04 04:12:52;;;;;;;1.15;0.90;;;23.80;46.00;;;;;;5032325;28;20025;-65
2022/05/04 04:15:18;;;;;;;1.15;0.80;;;23.70;46.00;;;;;;5034595;28;20040;-63
2022/05/04 04:17:44;;;;;;;1.20;0.90;;;23.70;46.00;;;;;;5034546;28;20412;-64
2022/05/04 04:22:54;;;;;;;0.85;0.80;;;23.70;46.00;;;;;;5036167;28;20118;-65
2022/05/04 04:25:19;;;;;;;1.20;0.90;;;23.70;46.00;;;;;;5034833;28;20095;-65
2022/05/04 04:27:45;;;;;;;1.02;0.80;;;23.70;46.10;;;;;;5031097;28;20033;-65
2022/05/04 04:30:11;;;;;;;1.42;1.00;;;23.70;46.00;;;;;;5026981;28;20425;-67
2022/05/04 04:32:37;;;;;;;1.38;1.10;;;23.70;46.10;;;;;;5030227;28;20089;-61
2022/05/04 04:35:03;;;;;;;1.30;0.90;;;23.70;46.10;;;;;;5029738;28;20476;-62
2022/05/04 04:37:29;;;;;;;1.10;0.80;;;23.70;46.10;;;;;;5033349;28;20017;-62
2022/05/04 04:39:54;;;;;;;1.23;0.90;;;23.70;46.10;;;;;;5032941;28;20838;-63
2022/05/04 04:42:20;;;;;;;1.05;0.85;;;23.70;46.10;;;;;;5031502;28;20083;-65
2022/05/04 04:44:45;;;;;;;1.30;0.93;;;23.70;46.10;;;;;;5030636;28;20116;-63
2022/05/04 04:47:11;;;;;;;1.00;0.82;;;23.70;46.10;;;;;;5035377;28;20515;-68
2022/05/04 04:49:37;;;;;;;1.08;0.80;;;23.70;46.10;;;;;;5028400;28;20080;-70
2022/05/04 04:52:02;;;;;;;1.05;0.80;;;23.70;46.20;;;;;;5025265;28;20036;-64
2022/05/04 04:54:28;;;;;;;1.13;0.90;;;23.70;46.20;;;;;;5035215;28;20039;-65
2022/05/04 04:56:54;;;;;;;1.17;0.80;;;23.70;46.10;;;;;;5024124;28;20029;-69
2022/05/04 04:59:19;;;;;;;1.42;0.80;;;23.60;46.10;;;;;;5031055;28;20028;-69
2022/05/04 05:01:45;;;;;;;1.20;0.93;;;23.70;46.20;;;;;;5024926;28;20041;-68
2022/05/04 05:04:10;;;;;;;1.10;0.80;;;23.60;46.10;;;;;;5027498;28;20041;-69
2022/05/04 05:06:36;;;;;;;1.83;1.00;;;23.60;46.10;;;;;;5023068;28;20029;-62
2022/05/04 05:09:01;;;;;;;1.05;0.90;;;23.60;46.20;;;;;;5029557;28;20082;-62
2022/05/04 05:11:27;;;;;;;1.00;0.80;;;23.60;46.20;;;;;;5032501;28;20029;-64
2022/05/04 05:16:37;;;;;;;1.70;1.00;;;23.60;46.20;;;;;;5028604;28;20206;-63
2022/05/04 05:19:02;;;;;;;1.67;0.80;;;23.60;46.20;;;;;;5031515;28;20033;-62
2022/05/04 05:21:28;;;;;;;1.13;0.88;;;23.60;46.20;;;;;;5034053;28;20021;-62
2022/05/04 05:23:54;;;;;;;1.40;0.80;;;23.70;46.20;;;;;;5032495;28;20116;-67
2022/05/04 05:26:19;;;;;;;0.85;0.70;;;23.70;46.20;;;;;;5035189;28;21250;-62
2022/05/04 05:28:47;;;;;;;1.10;0.90;;;23.70;46.20;;;;;;5034812;28;20044;-63
2022/05/04 05:31:13;;;;;;;1.08;0.75;;;23.70;46.20;;;;;;5032407;28;20118;-63
2022/05/04 05:33:39;;;;;;;1.08;0.80;;;23.80;46.10;;;;;;5031741;28;20533;-67
2022/05/04 05:36:05;;;;;;;0.85;0.80;;;23.80;46.10;;;;;;5029547;28;20136;-63
2022/05/04 05:38:31;;;;;;;0.90;0.80;;;23.80;46.00;;;;;;5033740;28;20404;-63
2022/05/04 05:40:57;;;;;;;0.98;0.77;;;23.80;46.00;;;;;;5033668;28;20035;-63
2022/05/04 05:43:22;;;;;;;0.73;0.70;;;23.90;46.00;;;;;;5034507;28;20049;-68
2022/05/04 05:45:48;;;;;;;1.10;0.90;;;23.90;45.90;;;;;;5034541;28;20048;-68
2022/05/04 05:48:14;;;;;;;1.45;0.70;;;23.90;45.80;;;;;;5031218;28;20013;-62
2022/05/04 05:50:40;;;;;;;1.38;1.08;;;24.00;45.80;;;;;;5034003;28;20077;-65
2022/05/04 05:53:05;;;;;;;1.27;0.90;;;23.90;45.70;;;;;;5031760;28;20049;-62
2022/05/04 05:55:31;;;;;;;0.80;0.80;;;24.00;45.70;;;;;;5033718;28;20029;-62
2022/05/04 05:57:56;;;;;;;1.67;0.80;;;24.00;45.60;;;;;;5036394;28;20053;-63
2022/05/04 06:00:22;;;;;;;0.80;0.80;;;24.10;45.60;;;;;;5031314;28;20048;-64
2022/05/04 06:02:48;;;;;;;1.38;0.80;;;24.10;45.60;;;;;;5031639;28;20033;-62
2022/05/04 06:05:14;;;;;;;1.40;0.85;;;24.10;45.60;;;;;;5030184;28;20140;-66
2022/05/04 06:07:40;;;;;;;1.10;0.90;;;24.10;45.50;;;;;;5034044;28;20445;-61
2022/05/04 06:10:06;;;;;;;1.30;0.85;;;24.10;45.50;;;;;;5033115;28;20021;-62
2022/05/04 06:12:32;;;;;;;2.08;0.90;;;24.10;45.40;;;;;;5035445;28;20033;-64
2022/05/04 06:14:58;;;;;;;1.10;0.90;;;24.20;45.40;;;;;;5032803;28;20119;-64
2022/05/04 06:17:23;;;;;;;1.63;0.80;;;24.20;45.40;;;;;;5033751;28;20486;-67
2022/05/04 06:19:49;;;;;;;1.88;0.80;;;24.20;45.40;;;;;;5030886;28;20172;-62
2022/05/04 06:22:15;;;;;;;1.70;0.90;;;24.30;45.30;;;;;;5033318;28;20122;-63
2022/05/04 06:24:40;;;;;;;1.58;0.90;;;24.30;45.30;;;;;;5032064;28;20039;-62
2022/05/04 06:27:06;;;;;;;1.48;0.90;;;24.20;45.30;;;;;;5032955;28;20024;-63
2022/05/04 06:35:06;;;;;;;0.93;0.80;;;24.30;45.20;;;;;;5031431;28;20048;-67
2022/05/04 06:37:32;;;;;;;1.08;0.88;;;24.40;45.20;;;;;;5033103;28;20028;-62
2022/05/04 06:39:57;;;;;;;1.20;0.90;;;24.40;45.20;;;;;;5033368;28;20032;-62
2022/05/04 06:42:23;;;;;;;1.20;0.80;;;24.40;45.20;;;;;;5031035;28;20055;-61
2022/05/04 06:44:49;;;;;;;1.10;0.80;;;24.40;45.30;;;;;;5032549;28;20072;-64
2022/05/04 06:47:14;;;;;;;1.20;0.90;;;24.50;45.20;;;;;;5033588;28;20135;-64
2022/05/04 06:49:40;;;;;;;1.55;0.90;;;24.50;45.20;;;;;;5030725;28;20044;-62
2022/05/04 06:52:06;;;;;;;2.72;0.90;;;24.50;45.10;;;;;;5031856;28;20079;-61
2022/05/04 06:54:32;;;;;;;1.15;0.80;;;24.50;45.10;;;;;;5032681;28;20108;-62
2022/05/04 06:56:58;;;;;;;1.13;0.90;;;24.50;45.10;;;;;;5029394;28;20040;-62
2022/05/04 06:59:24;;;;;;;1.00;0.75;;;24.50;45.00;;;;;;5032116;28;20079;-64
2022/05/04 07:01:49;;;;;;;1.27;0.70;;;24.60;45.00;;;;;;5033034;28;20104;-66
2022/05/04 07:04:16;;;;;;;0.95;0.70;;;24.50;45.00;;;;;;5028870;28;20029;-63
2022/05/04 07:06:42;;;;;;;1.27;0.80;;;24.60;45.10;;;;;;5030836;28;20033;-62
2022/05/04 07:09:07;;;;;;;1.42;0.80;;;24.60;45.10;;;;;;5032593;28;20037;-60
2022/05/04 07:11:33;;;;;;;0.93;0.73;;;24.60;45.10;;;;;;5032542;28;20021;-63
2022/05/04 07:13:59;;;;;;;2.33;0.80;;;24.60;45.00;;;;;;5031227;28;20318;-63
2022/05/04 07:16:24;;;;;;;0.95;0.80;;;24.70;45.00;;;;;;5029571;28;20033;-64
2022/05/04 07:18:50;;;;;;;0.80;0.80;;;24.70;45.10;;;;;;5029514;28;20114;-62
2022/05/04 07:21:15;;;;;;;1.20;0.80;;;24.70;45.10;;;;;;5032362;28;20115;-63
2022/05/04 07:23:41;;;;;;;1.00;0.88;;;24.70;45.10;;;;;;5030843;28;20097;-67
2022/05/04 07:26:06;;;;;;;0.80;0.80;;;24.80;45.10;;;;;;5032613;28;20082;-67
2022/05/04 07:28:33;;;;;;;0.90;0.80;;;24.80;45.00;;;;;;5030569;28;20598;-62
2022/05/04 07:30:58;;;;;;;1.45;0.90;;;24.80;44.90;;;;;;5032451;28;20058;-62
2022/05/04 07:33:24;;;;;;;1.10;0.82;;;24.80;44.80;;;;;;5030325;28;20125;-62
2022/05/04 07:35:49;;;;;;;2.05;0.90;;;24.80;44.90;;;;;;5029533;28;20131;-62
2022/05/04 07:38:15;;;;;;;0.85;0.80;;;24.80;44.90;;;;;;5027641;28;20037;-63
2022/05/04 07:43:25;;;;;;;1.20;0.80;;;24.80;44.80;;;;;;5030575;28;20060;-62
2022/05/04 07:45:51;;;;;;;1.20;0.93;;;24.90;44.80;;;;;;5031219;28;20033;-61
2022/05/04 07:48:17;;;;;;;1.58;1.00;;;24.80;44.70;;;;;;5030997;28;20036;-61
2022/05/04 07:50:42;;;;;;;1.35;0.90;;;24.90;44.80;;;;;;5030791;28;20588;-63
2022/05/04 07:53:08;;;;;;;1.05;0.80;;;24.90;44.70;;;;;;5033203;28;20029;-66
2022/05/04 07:55:36;;;;;;;1.10;0.90;;;24.90;44.70;;;;;;5030408;28;20040;-61
2022/05/04 07:58:01;;;;;;;1.25;1.15;;;24.90;44.70;;;;;;5034131;28;20115;-61
2022/05/04 08:05:56;;;;;;;0.80;0.70;;;25.00;45.00;;;;;;5030938;28;20036;-64
2022/05/04 08:08:22;;;;;;;0.85;0.77;;;25.00;45.00;;;;;;5030925;28;20037;-63
2022/05/04 08:10:47;;;;;;;0.90;0.70;;;25.00;45.20;;;;;;5029697;28;20033;-62
2022/05/04 08:13:13;;;;;;;0.90;0.70;;;25.00;45.30;;;;;;5030120;28;20469;-60
2022/05/04 08:15:39;;;;;;;1.08;0.68;;;25.00;45.30;;;;;;5028894;28;20825;-62
2022/05/04 08:18:05;;;;;;;1.05;0.73;;;25.00;45.50;;;;;;5030991;28;20151;-62
2022/05/04 08:20:31;;;;;;;1.40;0.70;;;25.00;45.70;;;;;;5028630;28;20422;-60
2022/05/04 08:22:58;;;;;;;0.80;0.70;;;25.10;45.50;;;;;;5030842;28;20041;-62
2022/05/04 08:25:24;;;;;;;0.75;0.70;;;25.10;45.30;;;;;;5027111;28;20087;-63
2022/05/04 08:27:49;;;;;;;1.23;0.90;;;25.10;45.50;;;;;;5033281;28;20056;-67
2022/05/04 08:30:15;;;;;;;2.70;1.00;;;25.10;45.00;;;;;;5029615;28;20080;-62
2022/05/04 08:32:44;;;;;;;1.58;0.80;;;25.10;44.80;;;;;;5031700;28;20612;-62
2022/05/04 08:35:12;;;;;;;0.98;0.80;;;25.10;44.70;;;;;;5026671;28;20056;-62
2022/05/04 08:37:38;;;;;;;0.90;0.70;;;25.10;44.70;;;;;;5030563;28;20036;-65
2022/05/04 08:40:04;;;;;;;0.90;0.70;;;25.20;44.80;;;;;;5029030;28;20098;-63
2022/05/04 08:42:30;;;;;;;0.95;0.70;;;25.10;44.90;;;;;;5037666;28;20437;-63
2022/05/04 08:44:57;;;;;;;0.90;0.65;;;25.10;45.50;;;;;;5033995;28;20135;-65
2022/05/04 08:47:25;;;;;;;0.98;0.73;;;25.20;45.90;;;;;;5033685;28;21010;-66
2022/05/04 08:49:51;;;;;;;0.70;0.70;;;25.20;46.30;;;;;;5031964;28;20103;-63
2022/05/04 08:52:18;;;;;;;1.70;0.60;;;25.30;46.60;;;;;;5033595;28;20037;-64
2022/05/04 08:54:44;;;;;;;1.58;0.70;;;25.30;46.60;;;;;;5034901;28;20044;-65
2022/05/04 08:57:10;;;;;;;0.73;0.70;;;25.30;46.20;;;;;;5033797;28;20045;-63
2022/05/04 08:59:36;;;;;;;1.08;0.75;;;25.30;45.80;;;;;;5029937;28;20489;-63
2022/05/04 09:02:02;;;;;;;0.70;0.70;;;25.30;46.00;;;;;;5027786;28;20045;-64
2022/05/04 09:04:31;;;;;;;1.13;0.70;;;25.30;45.70;;;;;;5029658;28;20029;-63
2022/05/04 09:07:00;;;;;;;1.60;0.70;;;25.40;46.30;;;;;;5033142;28;20057;-63
2022/05/04 09:09:26;;;;;;;2.10;0.90;;;25.40;46.10;;;;;;5033676;28;20049;-65
2022/05/04 09:11:52;;;;;;;0.88;0.70;;;25.40;47.00;;;;;;5030669;28;20047;-62
2022/05/04 09:14:26;;;;;;;1.20;0.80;;;25.40;46.60;;;;;;5032926;28;20571;-63
2022/05/04 09:16:52;;;;;;;0.60;0.60;;;25.40;46.20;;;;;;5032153;28;20119;-66
2022/05/04 09:19:19;;;;;;;0.82;0.80;;;25.40;46.90;;;;;;5028087;28;20051;-63
2022/05/04 09:21:47;;;;;;;0.93;0.80;;;25.50;46.80;;;;;;5033523;28;20496;-65
2022/05/04 09:24:15;;;;;;;0.90;0.80;;;25.50;46.10;;;;;;5030053;28;20017;-66
2022/05/04 09:26:42;;;;;;;1.43;0.80;;;25.50;45.50;;;;;;5032092;28;20052;-62
2022/05/04 09:29:11;;;;;;;0.73;0.70;;;25.50;45.40;;;;;;5033062;28;20294;-64
2022/05/04 09:31:39;;;;;;;1.02;0.85;;;25.50;45.30;;;;;;5030911;28;20056;-64
2022/05/04 09:34:08;;;;;;;1.20;0.80;;;25.50;45.70;;;;;;5028375;28;20029;-63
2022/05/04 09:45:11;;;;;;;1.02;0.90;;;25.50;45.90;;;;;;5031465;28;20090;-61
2022/05/04 09:47:41;;;;;;;1.10;0.90;;;25.60;46.00;;;;;;5027760;28;20453;-66
2022/05/04 09:50:09;;;;;;;2.03;1.00;;;25.50;45.60;;;;;;5033848;28;20025;-63
2022/05/04 09:52:46;;;;;;;1.58;0.90;;;25.60;45.70;;;;;;5030346;28;20031;-63
2022/05/04 09:55:20;;;;;;;0.98;0.80;;;25.60;45.50;;;;;;5027743;28;20489;-64
2022/05/04 09:57:47;;;;;;;1.00;0.90;;;25.60;45.50;;;;;;5032638;28;20398;-66
2022/05/04 10:00:14;;;;;;;1.40;0.80;;;25.50;45.40;;;;;;5030675;28;20086;-62
2022/05/04 10:02:44;;;;;;;1.25;0.90;;;25.60;45.50;;;;;;5028137;28;20035;-63
2022/05/04 10:05:10;;;;;;;1.25;0.80;;;25.60;45.50;;;;;;5030300;28;21244;-65
2022/05/04 10:07:37;;;;;;;2.13;0.82;;;25.60;45.50;;;;;;5026347;28;20029;-62
2022/05/04 10:10:07;;;;;;;1.35;0.90;;;25.60;45.40;;;;;;5032877;28;20056;-66
2022/05/04 10:12:38;;;;;;;1.95;1.00;;;25.60;45.40;;;;;;5028291;28;20025;-65
2022/05/04 10:15:26;;;;;;;1.25;0.90;;;25.50;45.30;;;;;;5029460;28;20098;-64
2022/05/04 10:17:57;;;;;;;1.60;0.98;;;25.50;45.30;;;;;;5029782;28;20045;-64
2022/05/04 10:20:39;;;;;;;1.30;0.90;;;25.50;45.30;;;;;;5029408;28;20033;-64
2022/05/04 10:23:14;;;;;;;0.80;0.73;;;25.50;45.30;;;;;;5028982;28;20507;-63
2022/05/04 10:25:41;;;;;;;1.40;1.00;;;25.50;45.20;;;;;;5026659;28;20029;-64
2022/05/04 10:28:11;;;;;;;1.52;0.90;;;25.50;45.20;;;;;;5031083;28;20071;-61
2022/05/04 10:30:46;;;;;;;1.88;1.17;;;25.50;45.20;;;;;;5030030;28;20047;-60
2022/05/04 10:33:14;;;;;;;1.30;0.80;;;25.50;45.20;;;;;;5028621;28;20203;-65
2022/05/04 10:35:43;;;;;;;1.35;0.93;;;25.50;45.60;;;;;;5014313;28;20039;-64
2022/05/04 10:38:27;;;;;;;1.02;0.80;;;25.40;45.20;;;;;;5032408;28;20025;-62
2022/05/04 10:40:55;;;;;;;1.67;1.05;;;25.40;45.20;;;;;;5034966;28;20025;-64
2022/05/04 10:43:38;;;;;;;1.23;0.90;;;25.40;45.10;;;;;;5027988;28;20644;-62
2022/05/04 10:46:12;;;;;;;1.10;0.90;;;25.40;45.10;;;;;;5029731;28;20437;-64
2022/05/04 10:48:45;;;;;;;1.42;0.90;;;25.40;45.10;;;;;;5027322;28;20081;-62
2022/05/04 10:51:12;;;;;;;1.40;1.00;;;25.40;44.90;;;;;;5030373;28;20404;-62
2022/05/04 10:53:41;;;;;;;1.27;1.00;;;25.40;45.00;;;;;;5023029;28;20175;-63
2022/05/04 10:56:15;;;;;;;1.10;0.90;;;25.40;45.10;;;;;;5033475;28;20040;-64
2022/05/04 10:58:50;;;;;;;1.27;0.90;;;25.40;45.10;;;;;;5027144;28;20075;-64
2022/05/04 11:01:23;;;;;;;1.33;0.90;;;25.40;45.00;;;;;;5027504;28;20107;-65
2022/05/04 11:04:23;;;;;;;1.33;1.00;;;25.40;44.90;;;;;;5027405;28;20146;-64
2022/05/04 11:07:00;;;;;;;1.38;1.00;;;25.40;45.00;;;;;;4984150;28;20056;-64
2022/05/04 11:09:31;;;;;;;0.90;0.80;;;25.40;44.90;;;;;;5030559;28;20027;-61
2022/05/04 11:11:59;;;;;;;1.33;0.90;;;25.40;44.90;;;;;;5028341;28;20041;-61
2022/05/04 11:14:25;;;;;;;1.40;0.85;;;25.40;44.90;;;;;;5025621;28;20061;-65
2022/05/04 11:16:52;;;;;;;1.27;1.00;;;25.40;44.90;;;;;;5029687;28;20037;-66
2022/05/04 11:19:19;;;;;;;1.88;0.70;;;25.40;44.90;;;;;;5029325;28;20055;-65
2022/05/04 11:21:45;;;;;;;1.35;0.80;;;25.50;45.00;;;;;;5031202;28;20033;-64
2022/05/04 11:24:12;;;;;;;1.40;0.90;;;25.40;44.90;;;;;;5026511;28;20204;-63
2022/05/04 11:26:43;;;;;;;1.23;0.98;;;25.40;44.90;;;;;;5028039;28;20021;-63
2022/05/04 11:29:15;;;;;;;1.33;0.90;;;25.40;45.00;;;;;;5026209;28;20099;-63
2022/05/04 11:31:58;;;;;;;1.15;0.90;;;25.40;44.90;;;;;;5018807;28;20074;-66
2022/05/04 11:34:32;;;;;;;1.52;0.90;;;25.50;45.20;;;;;;5026783;28;20087;-64
2022/05/04 11:37:01;;;;;;;1.20;0.95;;;25.50;45.60;;;;;;5029578;28;20033;-67
2022/05/04 11:39:29;;;;;;;1.40;0.90;;;25.50;45.10;;;;;;5026570;28;20021;-62
2022/05/04 11:41:56;;;;;;;1.50;0.95;;;25.50;45.20;;;;;;5029630;28;20025;-66
2022/05/04 11:44:23;;;;;;;3.03;0.80;;;25.50;45.10;;;;;;5030033;28;20033;-66
2022/05/04 11:46:54;;;;;;;0.90;0.80;;;25.50;45.20;;;;;;5023116;28;20041;-67
2022/05/04 11:49:21;;;;;;;1.13;0.80;;;25.50;45.10;;;;;;5013251;28;20117;-64
2022/05/04 11:51:48;;;;;;;1.08;0.90;;;25.50;45.10;;;;;;5002157;28;20585;-68
2022/05/04 11:54:14;;;;;;;1.50;1.00;;;25.50;45.10;;;;;;5013279;28;20477;-65
2022/05/04 11:56:40;;;;;;;1.67;1.00;;;25.60;45.20;;;;;;5014432;28;20068;-65
2022/05/04 11:59:07;;;;;;;1.73;0.88;;;25.60;45.20;;;;;;5017324;28;20033;-67
2022/05/04 12:01:33;;;;;;;1.65;0.80;;;25.60;45.10;;;;;;5017271;28;20124;-64
2022/05/04 12:04:00;;;;;;;1.10;0.90;;;25.60;45.20;;;;;;5014728;28;20038;-67
2022/05/04 12:06:27;;;;;;;1.38;0.80;;;25.60;45.10;;;;;;5016593;28;20061;-66
2022/05/04 12:08:54;;;;;;;1.13;0.80;;;25.60;45.10;;;;;;5019884;28;20037;-63
2022/05/04 12:11:22;;;;;;;1.25;0.90;;;25.60;45.20;;;;;;5016106;28;20422;-64
2022/05/04 12:13:48;;;;;;;0.77;0.77;;;25.60;45.20;;;;;;5020065;28;20029;-66
2022/05/04 12:16:14;;;;;;;0.90;0.80;;;25.60;45.10;;;;;;5021397;28;20500;-64
2022/05/04 12:18:40;;;;;;;1.00;0.80;;;25.60;45.20;;;;;;5018103;28;20040;-64
2022/05/04 12:21:14;;;;;;;1.17;0.80;;;25.60;45.20;;;;;;5019935;28;20392;-66
2022/05/04 12:23:42;;;;;;;0.90;0.80;;;25.70;45.30;;;;;;5022585;28;20152;-64
2022/05/04 12:26:10;;;;;;;1.27;0.80;;;25.70;45.40;;;;;;5022346;28;20029;-63
2022/05/04 12:28:38;;;;;;;0.95;0.80;;;25.70;45.30;;;;;;5022444;28;20029;-63
2022/05/04 12:33:48;;;;;;;2.53;0.80;;;25.70;45.30;;;;;;5026441;28;20068;-64
2022/05/04 12:36:15;;;;;;;1.55;0.80;;;25.70;45.30;;;;;;5023143;28;20064;-61
2022/05/04 12:38:46;;;;;;;1.00;0.80;;;25.70;45.20;;;;;;5034242;28;20056;-62
2022/05/04 12:41:15;;;;;;;0.82;0.80;;;25.80;45.30;;;;;;5024542;28;20033;-64
2022/05/04 12:43:41;;;;;;;1.10;0.80;;;25.80;45.20;;;;;;5024359;28;20036;-66
2022/05/04 12:46:11;;;;;;;0.70;0.70;;;25.80;45.30;;;;;;5025802;28;20037;-62
2022/05/04 12:48:40;;;;;;;1.23;0.85;;;25.80;45.60;;;;;;5019776;28;20039;-64
2022/05/04 12:51:07;;;;;;;2.90;0.85;;;25.80;45.30;;;;;;5022849;28;20033;-67
2022/05/04 12:53:32;;;;;;;1.20;0.90;;;25.80;45.20;;;;;;5019838;28;20029;-64
2022/05/04 12:58:42;;;;;;;0.85;0.80;;;25.80;45.20;;;;;;5019110;28;20052;-64
2022/05/04 13:01:08;;;;;;;1.20;0.70;;;25.90;45.40;;;;;;5016082;28;20434;-64
2022/05/04 13:03:34;;;;;;;1.23;0.75;;;25.80;45.80;;;;;;5016207;28;20033;-64
2022/05/04 13:06:00;;;;;;;0.85;0.80;;;25.90;45.60;;;;;;5017015;28;20033;-64
2022/05/04 13:08:26;;;;;;;1.40;0.90;;;25.90;45.50;;;;;;5017298;28;20426;-63
2022/05/04 13:10:53;;;;;;;1.13;0.77;;;25.90;45.50;;;;;;5021319;28;20060;-65
2022/05/04 13:13:21;;;;;;;1.50;0.90;;;25.90;45.30;;;;;;5021154;28;20026;-64
2022/05/04 13:15:53;;;;;;;0.70;0.70;;;25.90;45.30;;;;;;5019086;28;20120;-63
2022/05/04 13:18:19;;;;;;;2.85;1.02;;;25.90;45.20;;;;;;5015363;28;20442;-64
2022/05/04 13:20:46;;;;;;;1.48;0.80;;;26.00;45.20;;;;;;5014448;28;20139;-64
2022/05/04 13:23:12;;;;;;;1.58;0.90;;;26.00;45.20;;;;;;5017542;28;20033;-66
2022/05/04 13:25:37;;;;;;;1.52;0.90;;;26.00;45.20;;;;;;5012247;28;20100;-63
2022/05/04 13:28:04;;;;;;;1.02;0.88;;;26.00;45.30;;;;;;4998854;28;20034;-62